createdAt,value
2022-09-18T00:01:16.826Z,100262.47
2022-09-18T00:03:46.380Z,100264.41
2022-09-18T00:06:17.090Z,100257.72
2022-09-18T00:08:45.433Z,100265.63
2022-09-18T00:11:16.901Z,100264.41
2022-09-18T00:13:44.969Z,100265.09
2022-09-18T00:16:19.165Z,100267.41
2022-09-18T00:18:48.006Z,100265.31
2022-09-18T00:21:18.653Z,100270.03
2022-09-18T00:23:47.331Z,100267.16
2022-09-18T00:26:18.884Z,100261.81
2022-09-18T00:28:47.380Z,100269.75
2022-09-18T00:31:17.823Z,100265.78
2022-09-18T00:33:46.142Z,100270.31
2022-09-18T00:36:18.361Z,100271.16
2022-09-18T00:38:46.726Z,100275.94
2022-09-18T00:41:18.408Z,100280.47
2022-09-18T00:43:46.871Z,100294.75
2022-09-18T00:46:24.064Z,100281.44
2022-09-18T00:49:02.879Z,100272.00
2022-09-18T00:51:32.717Z,100283.97
2022-09-18T00:54:07.750Z,100284.53
2022-09-18T00:56:38.175Z,100283.09
2022-09-18T00:59:06.503Z,100278.59
2022-09-18T01:01:34.553Z,100280.91
2022-09-18T01:04:03.836Z,100287.03
2022-09-18T01:06:39.673Z,100281.50
2022-09-18T01:09:27.707Z,100278.41
2022-09-18T01:12:05.066Z,100293.09
2022-09-18T01:14:42.044Z,100285.22
2022-09-18T01:17:22.445Z,100290.88
2022-09-18T01:20:09.734Z,100289.13
2022-09-18T01:22:53.096Z,100290.75
2022-09-18T01:25:33.046Z,100292.00
2022-09-18T01:28:18.135Z,100292.28
2022-09-18T01:30:50.296Z,100285.53
2022-09-18T01:33:25.221Z,100283.81
2022-09-18T01:35:58.333Z,100283.25
2022-09-18T01:38:32.100Z,100283.84
2022-09-18T01:41:04.476Z,100288.78
2022-09-18T01:43:35.937Z,100296.13
2022-09-18T01:46:10.940Z,100296.13
2022-09-18T01:48:43.911Z,100294.56
2022-09-18T01:51:18.378Z,100302.56
2022-09-18T01:53:49.384Z,100305.56
2022-09-18T01:56:21.143Z,100311.78
2022-09-18T01:58:53.526Z,100315.16
2022-09-18T02:01:29.436Z,100309.22
2022-09-18T02:04:02.851Z,100312.50
2022-09-18T02:06:35.484Z,100317.16
2022-09-18T02:09:05.037Z,100312.09
2022-09-18T02:11:35.603Z,100310.78
2022-09-18T02:14:09.920Z,100310.38
2022-09-18T02:17:06.394Z,100307.94
2022-09-18T02:19:43.395Z,100321.81
2022-09-18T02:22:16.785Z,100307.00
2022-09-18T02:24:50.247Z,100318.41
2022-09-18T02:27:20.347Z,100316.44
2022-09-18T02:29:51.347Z,100323.66
2022-09-18T02:32:19.898Z,100321.97
2022-09-18T02:34:48.144Z,100309.97
2022-09-18T02:37:38.269Z,100316.03
2022-09-18T02:40:20.629Z,100319.53
2022-09-18T02:42:56.726Z,100320.25
2022-09-18T02:45:32.730Z,100316.84
2022-09-18T02:48:12.247Z,100312.78
2022-09-18T02:50:56.546Z,100324.50
2022-09-18T02:53:31.168Z,100323.66
2022-09-18T02:56:05.157Z,100324.38
2022-09-18T02:58:40.882Z,100328.16
2022-09-18T03:01:13.889Z,100325.94
2022-09-18T03:03:43.048Z,100333.66
2022-09-18T03:06:12.817Z,100336.34
2022-09-18T03:08:41.366Z,100338.28
2022-09-18T03:11:09.960Z,100349.63
2022-09-18T03:13:37.956Z,100338.63
2022-09-18T03:16:05.899Z,100344.69
2022-09-18T03:18:35.236Z,100344.41
2022-09-18T03:21:03.114Z,100350.34
2022-09-18T03:23:31.051Z,100349.34
2022-09-18T03:26:10.810Z,100351.56
2022-09-18T03:28:39.555Z,100358.75
2022-09-18T03:31:07.871Z,100355.28
2022-09-18T03:33:37.716Z,100353.84
2022-09-18T03:36:06.887Z,100359.75
2022-09-18T03:38:37.745Z,100356.06
2022-09-18T03:41:08.246Z,100358.81
2022-09-18T03:43:36.483Z,100361.03
2022-09-18T03:46:06.597Z,100362.88
2022-09-18T03:48:34.521Z,100361.16
2022-09-18T03:51:05.710Z,100383.28
2022-09-18T03:53:34.400Z,100379.47
2022-09-18T03:56:22.548Z,100364.97
2022-09-18T03:59:07.341Z,100368.97
2022-09-18T04:01:51.490Z,100375.53
2022-09-18T04:04:28.671Z,100383.75
2022-09-18T04:07:10.007Z,100381.66
2022-09-18T04:09:56.721Z,100384.50
2022-09-18T04:12:24.652Z,100374.44
2022-09-18T04:15:08.005Z,100384.72
2022-09-18T04:17:37.673Z,100388.50
2022-09-18T04:20:06.296Z,100386.19
2022-09-18T04:22:35.825Z,100390.06
2022-09-18T04:25:04.753Z,100383.84
2022-09-18T04:27:34.206Z,100389.19
2022-09-18T04:30:02.125Z,100396.41
2022-09-18T04:32:30.381Z,100394.13
2022-09-18T04:34:58.247Z,100403.47
2022-09-18T04:37:30.055Z,100404.88
2022-09-18T04:40:01.489Z,100407.38
2022-09-18T04:42:31.505Z,100408.00
2022-09-18T04:44:59.453Z,100418.81
2022-09-18T04:47:27.315Z,100410.06
2022-09-18T04:49:55.231Z,100417.00
2022-09-18T04:52:23.207Z,100417.25
2022-09-18T04:54:51.058Z,100413.72
2022-09-18T04:57:20.342Z,100416.81
2022-09-18T04:59:48.452Z,100415.56
2022-09-18T05:02:16.524Z,100421.81
2022-09-18T05:04:44.476Z,100423.06
2022-09-18T05:07:23.989Z,100425.41
2022-09-18T05:09:51.908Z,100434.81
2022-09-18T05:12:21.183Z,100427.38
2022-09-18T05:14:49.049Z,100424.59
2022-09-18T05:17:19.652Z,100428.91
2022-09-18T05:19:59.555Z,100428.09
2022-09-18T05:22:31.377Z,100426.28
2022-09-18T05:24:59.359Z,100429.16
2022-09-18T05:27:28.616Z,100432.97
2022-09-18T05:29:57.084Z,100423.50
2022-09-18T05:32:35.725Z,100425.06
2022-09-18T05:35:03.649Z,100429.53
2022-09-18T05:37:31.592Z,100432.38
2022-09-18T05:39:59.533Z,100437.56
2022-09-18T05:42:29.042Z,100446.84
2022-09-18T05:45:01.900Z,100452.78
2022-09-18T05:47:32.463Z,100459.53
2022-09-18T05:50:01.233Z,100454.22
2022-09-18T05:52:29.201Z,100458.75
2022-09-18T05:54:57.278Z,100464.09
2022-09-18T05:57:25.375Z,100459.00
2022-09-18T05:59:54.863Z,100466.06
2022-09-18T06:02:22.749Z,100468.00
2022-09-18T06:04:59.136Z,100462.16
2022-09-18T06:07:27.011Z,100453.66
2022-09-18T06:09:54.994Z,100462.91
2022-09-18T06:12:24.895Z,100457.75
2022-09-18T06:14:54.181Z,100464.22
2022-09-18T06:17:22.120Z,100459.25
2022-09-18T06:19:53.129Z,100475.56
2022-09-18T06:22:21.047Z,100472.78
2022-09-18T06:24:49.040Z,100452.28
2022-09-18T06:27:20.272Z,100467.03
2022-09-18T06:29:48.480Z,100456.47
2022-09-18T06:32:28.186Z,100466.34
2022-09-18T06:34:56.943Z,100478.53
2022-09-18T06:37:26.938Z,100469.78
2022-09-18T06:40:34.355Z,100471.97
2022-09-18T06:43:21.185Z,100475.13
2022-09-18T06:46:15.430Z,100464.59
2022-09-18T06:48:49.370Z,100474.31
2022-09-18T06:51:17.312Z,100476.84
2022-09-18T06:54:02.430Z,100475.97
2022-09-18T06:56:30.417Z,100470.28
2022-09-18T06:58:58.408Z,100477.81
2022-09-18T07:01:26.403Z,100477.47
2022-09-18T07:04:07.791Z,100482.19
2022-09-18T07:06:45.393Z,100489.66
2022-09-18T07:09:14.405Z,100486.53
2022-09-18T07:11:54.899Z,100489.97
2022-09-18T07:14:32.433Z,100485.03
2022-09-18T07:17:13.063Z,100486.72
2022-09-18T07:19:46.626Z,100492.34
2022-09-18T07:22:17.043Z,100482.94
2022-09-18T07:24:48.152Z,100488.16
2022-09-18T07:27:16.068Z,100487.59
2022-09-18T07:29:44.766Z,100482.66
2022-09-18T07:32:15.787Z,100487.44
2022-09-18T07:34:47.636Z,100488.03
2022-09-18T07:37:24.085Z,100482.63
2022-09-18T07:40:04.299Z,100480.47
2022-09-18T07:42:51.591Z,100476.13
2022-09-18T07:45:20.115Z,100487.03
2022-09-18T07:47:48.803Z,100485.34
2022-09-18T07:50:18.357Z,100486.72
2022-09-18T07:52:52.162Z,100492.09
2022-09-18T07:55:24.433Z,100492.78
2022-09-18T07:57:57.612Z,100492.78
2022-09-18T08:00:45.865Z,100489.69
2022-09-18T08:03:15.297Z,100494.63
2022-09-18T08:05:56.786Z,100488.75
2022-09-18T08:08:25.515Z,100495.19
2022-09-18T08:10:59.588Z,100489.69
2022-09-18T08:13:49.188Z,100485.41
2022-09-18T08:16:35.793Z,100477.84
2022-09-18T08:19:20.887Z,100490.28
2022-09-18T08:21:56.099Z,100485.38
2022-09-18T08:24:24.627Z,100474.50
2022-09-18T08:26:52.557Z,100498.44
2022-09-18T08:29:20.799Z,100478.72
2022-09-18T08:32:00.279Z,100476.34
2022-09-18T08:34:28.603Z,100481.53
2022-09-18T08:36:58.212Z,100485.78
2022-09-18T08:40:01.712Z,100475.81
2022-09-18T08:43:05.660Z,100496.91
2022-09-18T08:45:49.828Z,100473.69
2022-09-18T08:48:22.211Z,100476.72
2022-09-18T08:50:57.743Z,100469.50
2022-09-18T08:53:33.978Z,100469.00
2022-09-18T08:56:23.839Z,100490.16
2022-09-18T08:59:18.109Z,100479.69
2022-09-18T09:01:56.478Z,100474.19
2022-09-18T09:04:28.809Z,100484.94
2022-09-18T09:07:07.616Z,100470.84
2022-09-18T09:09:53.916Z,100470.63
2022-09-18T09:12:34.576Z,100471.25
2022-09-18T09:15:29.470Z,100467.50
2022-09-18T09:18:13.304Z,100461.06
2022-09-18T09:20:50.556Z,100459.06
2022-09-18T09:23:27.228Z,100451.44
2022-09-18T09:26:07.084Z,100455.28
2022-09-18T09:28:59.262Z,100458.78
2022-09-18T09:31:39.362Z,100458.53
2022-09-18T09:34:44.497Z,100460.72
2022-09-18T09:37:39.573Z,100457.16
2022-09-18T09:40:17.891Z,100460.75
2022-09-18T09:42:53.903Z,100449.84
2022-09-18T09:45:29.151Z,100454.81
2022-09-18T09:48:07.655Z,100449.03
2022-09-18T09:50:44.687Z,100457.31
2022-09-18T09:53:14.151Z,100456.41
2022-09-18T09:55:57.330Z,100450.72
2022-09-18T09:58:37.835Z,100468.94
2022-09-18T10:01:13.398Z,100482.81
2022-09-18T10:03:53.502Z,100468.09
2022-09-18T10:06:36.543Z,100488.22
2022-09-18T10:09:15.281Z,100475.09
2022-09-18T10:11:52.135Z,100463.66
2022-09-18T10:14:29.505Z,100465.78
2022-09-18T10:16:59.725Z,100462.91
2022-09-18T10:19:36.904Z,100449.09
2022-09-18T10:22:08.791Z,100443.34
2022-09-18T10:24:45.404Z,100443.06
2022-09-18T10:27:16.201Z,100441.03
2022-09-18T10:29:46.551Z,100448.75
2022-09-18T10:32:36.001Z,100453.72
2022-09-18T10:35:41.455Z,100450.84
2022-09-18T10:38:29.651Z,100451.09
2022-09-18T10:41:25.959Z,100442.16
2022-09-18T10:43:57.712Z,100427.47
2022-09-18T10:46:31.578Z,100439.19
2022-09-18T10:49:18.727Z,100432.69
2022-09-18T10:51:47.184Z,100426.19
2022-09-18T10:54:23.025Z,100446.44
2022-09-18T10:57:26.498Z,100462.25
2022-09-18T10:59:55.758Z,100457.78
2022-09-18T11:02:27.964Z,100455.44
2022-09-18T11:04:57.248Z,100435.81
2022-09-18T11:07:30.819Z,100429.06
2022-09-18T11:10:08.818Z,100418.63
2022-09-18T11:12:36.800Z,100425.94
2022-09-18T11:15:07.838Z,100423.47
2022-09-18T11:17:49.774Z,100424.09
2022-09-18T11:20:24.801Z,100458.28
2022-09-18T11:23:16.007Z,100444.81
2022-09-18T11:25:45.756Z,100440.09
2022-09-18T11:28:25.485Z,100442.59
2022-09-18T11:30:58.067Z,100443.69
2022-09-18T11:33:30.955Z,100424.91
2022-09-18T11:36:04.387Z,100434.81
2022-09-18T11:38:39.578Z,100430.91
2022-09-18T11:41:08.242Z,100427.28
2022-09-18T11:43:42.597Z,100414.53
2022-09-18T11:46:26.569Z,100399.09
2022-09-18T11:49:04.827Z,100407.56
2022-09-18T11:51:44.671Z,100410.28
2022-09-18T11:54:25.613Z,100400.13
2022-09-18T11:57:00.090Z,100390.47
2022-09-18T11:59:35.349Z,100378.56
2022-09-18T12:02:13.547Z,100399.31
2022-09-18T12:04:49.449Z,100375.78
2022-09-18T12:07:40.685Z,100375.44
2022-09-18T12:10:17.848Z,100387.53
2022-09-18T12:12:52.780Z,100425.81
2022-09-18T12:15:23.137Z,100432.91
2022-09-18T12:17:56.319Z,100437.06
2022-09-18T12:20:29.742Z,100419.28
2022-09-18T12:22:58.358Z,100420.69
2022-09-18T12:25:34.850Z,100407.84
2022-09-18T12:28:28.123Z,100401.06
2022-09-18T12:31:06.382Z,100404.31
2022-09-18T12:33:44.221Z,100390.03
2022-09-18T12:36:51.124Z,100392.47
2022-09-18T12:39:39.866Z,100382.09
2022-09-18T12:42:20.661Z,100378.19
2022-09-18T12:45:28.457Z,100376.56
2022-09-18T12:48:10.754Z,100370.94
2022-09-18T12:50:52.055Z,100367.75
2022-09-18T12:53:36.253Z,100369.25
2022-09-18T12:56:18.874Z,100357.31
2022-09-18T12:59:00.524Z,100362.91
2022-09-18T13:01:35.251Z,100364.22
2022-09-18T13:04:13.072Z,100356.44
2022-09-18T13:06:46.161Z,100364.00
2022-09-18T13:09:25.145Z,100360.81
2022-09-18T13:11:58.706Z,100357.56
2022-09-18T13:14:29.872Z,100365.59
2022-09-18T13:17:06.472Z,100373.34
2022-09-18T13:19:39.074Z,100387.25
2022-09-18T13:22:19.651Z,100372.63
2022-09-18T13:24:52.920Z,100373.75
2022-09-18T13:27:22.412Z,100371.47
2022-09-18T13:29:59.123Z,100375.69
2022-09-18T13:32:40.822Z,100375.28
2022-09-18T13:35:21.878Z,100364.59
2022-09-18T13:38:03.461Z,100373.84
2022-09-18T13:40:39.551Z,100369.34
2022-09-18T13:43:34.960Z,100362.16
2022-09-18T13:46:07.042Z,100351.63
2022-09-18T13:48:43.237Z,100360.13
2022-09-18T13:51:18.588Z,100360.75
2022-09-18T13:53:46.609Z,100363.03
2022-09-18T13:56:17.422Z,100360.44
2022-09-18T13:58:54.453Z,100360.59
2022-09-18T14:02:04.204Z,100364.66
2022-09-18T14:04:58.740Z,100371.19
2022-09-18T14:08:05.080Z,100366.56
2022-09-18T14:10:54.922Z,100371.81
2022-09-18T14:13:42.754Z,100363.81
2022-09-18T14:16:26.834Z,100360.53
2022-09-18T14:18:59.406Z,100363.50
2022-09-18T14:21:31.858Z,100355.06
2022-09-18T14:24:36.394Z,100365.16
2022-09-18T14:27:36.924Z,100363.06
2022-09-18T14:30:15.391Z,100365.69
2022-09-18T14:32:49.821Z,100369.19
2022-09-18T14:35:29.336Z,100371.06
2022-09-18T14:37:57.259Z,100373.41
2022-09-18T14:40:27.458Z,100366.41
2022-09-18T14:42:55.889Z,100360.28
2022-09-18T14:45:30.957Z,100358.72
2022-09-18T14:47:59.767Z,100353.53
2022-09-18T14:50:34.832Z,100366.50
2022-09-18T14:53:04.918Z,100369.47
2022-09-18T14:55:36.652Z,100361.69
2022-09-18T14:58:08.258Z,100373.69
2022-09-18T15:00:39.313Z,100367.16
2022-09-18T15:03:14.903Z,100372.25
2022-09-18T15:05:42.909Z,100370.00
2022-09-18T15:08:18.537Z,100375.44
2022-09-18T15:10:49.939Z,100361.69
2022-09-18T15:13:20.608Z,100361.72
2022-09-18T15:15:59.207Z,100350.78
2022-09-18T15:18:29.611Z,100343.84
2022-09-18T15:21:01.695Z,100341.00
2022-09-18T15:23:31.667Z,100341.44
2022-09-18T15:26:02.631Z,100350.06
2022-09-18T15:28:35.761Z,100354.44
2022-09-18T15:31:08.930Z,100356.81
2022-09-18T15:33:39.120Z,100353.53
2022-09-18T15:36:07.853Z,100336.72
2022-09-18T15:38:41.147Z,100346.47
2022-09-18T15:41:21.906Z,100353.09
2022-09-18T15:43:50.478Z,100343.50
2022-09-18T15:46:28.026Z,100342.84
2022-09-18T15:48:59.485Z,100352.69
2022-09-18T15:51:30.185Z,100337.47
2022-09-18T15:54:09.637Z,100347.84
2022-09-18T15:56:40.571Z,100344.84
2022-09-18T15:59:21.670Z,100344.63
2022-09-18T16:01:52.122Z,100341.63
2022-09-18T16:04:24.204Z,100338.25
2022-09-18T16:06:55.749Z,100339.75
2022-09-18T16:09:40.244Z,100351.56
2022-09-18T16:12:41.362Z,100344.78
2022-09-18T16:15:21.987Z,100344.50
2022-09-18T16:18:04.952Z,100342.63
2022-09-18T16:20:39.038Z,100346.25
2022-09-18T16:23:24.133Z,100345.34
2022-09-18T16:26:10.750Z,100344.78
2022-09-18T16:28:43.835Z,100347.09
2022-09-18T16:31:13.680Z,100341.00
2022-09-18T16:33:52.438Z,100353.09
2022-09-18T16:36:27.494Z,100347.38
2022-09-18T16:38:55.689Z,100347.00
2022-09-18T16:41:24.166Z,100348.34
2022-09-18T16:43:53.877Z,100354.25
2022-09-18T16:46:25.286Z,100365.00
2022-09-18T16:48:54.729Z,100361.84
2022-09-18T16:51:22.965Z,100369.34
2022-09-18T16:53:50.985Z,100377.19
2022-09-18T16:56:27.133Z,100388.53
2022-09-18T16:58:57.734Z,100389.50
2022-09-18T17:01:26.274Z,100395.63
2022-09-18T17:03:55.814Z,100377.16
2022-09-18T17:06:23.727Z,100383.53
2022-09-18T17:08:51.691Z,100377.28
2022-09-18T17:11:19.599Z,100369.09
2022-09-18T17:13:47.610Z,100373.63
2022-09-18T17:16:30.352Z,100374.06
2022-09-18T17:19:05.220Z,100386.91
2022-09-18T17:21:33.094Z,100384.22
2022-09-18T17:24:02.123Z,100376.16
2022-09-18T17:26:31.007Z,100380.69
2022-09-18T17:28:59.440Z,100382.38
2022-09-18T17:31:27.861Z,100382.22
2022-09-18T17:33:56.706Z,100380.41
2022-09-18T17:36:26.228Z,100391.69
2022-09-18T17:38:54.123Z,100382.66
2022-09-18T17:41:22.168Z,100383.50
2022-09-18T17:43:52.052Z,100381.22
2022-09-18T17:46:20.373Z,100380.81
2022-09-18T17:48:50.123Z,100395.63
2022-09-18T17:51:19.668Z,100394.53
2022-09-18T17:53:50.237Z,100412.88
2022-09-18T17:56:19.566Z,100412.91
2022-09-18T17:58:48.047Z,100420.63
2022-09-18T18:01:18.437Z,100411.03
2022-09-18T18:03:47.886Z,100416.75
2022-09-18T18:06:21.504Z,100427.75
2022-09-18T18:08:52.029Z,100415.19
2022-09-18T18:11:23.026Z,100412.78
2022-09-18T18:13:52.369Z,100411.91
2022-09-18T18:16:22.099Z,100400.94
2022-09-18T18:18:51.286Z,100397.97
2022-09-18T18:21:19.757Z,100402.28
2022-09-18T18:23:47.805Z,100414.59
2022-09-18T18:26:17.137Z,100408.84
2022-09-18T18:28:45.415Z,100416.19
2022-09-18T18:31:17.116Z,100407.56
2022-09-18T18:33:45.285Z,100406.22
2022-09-18T18:36:15.180Z,100405.75
2022-09-18T18:38:45.254Z,100406.06
2022-09-18T18:41:14.768Z,100418.09
2022-09-18T18:43:44.685Z,100418.63
2022-09-18T18:46:15.444Z,100409.19
2022-09-18T18:48:45.088Z,100400.16
2022-09-18T18:51:15.557Z,100404.69
2022-09-18T18:53:44.860Z,100410.53
2022-09-18T18:56:15.184Z,100407.09
2022-09-18T18:58:45.378Z,100400.31
2022-09-18T19:01:15.742Z,100401.56
2022-09-18T19:03:49.778Z,100404.97
2022-09-18T19:06:17.693Z,100403.94
2022-09-18T19:08:47.238Z,100403.94
2022-09-18T19:11:16.377Z,100410.81
2022-09-18T19:13:51.042Z,100419.91
2022-09-18T19:16:20.632Z,100415.31
2022-09-18T19:18:53.750Z,100407.44
2022-09-18T19:21:22.353Z,100408.41
2022-09-18T19:23:52.156Z,100411.38
2022-09-18T19:26:21.099Z,100410.31
2022-09-18T19:28:54.894Z,100409.56
2022-09-18T19:31:23.710Z,100415.16
2022-09-18T19:33:52.535Z,100414.06
2022-09-18T19:36:21.450Z,100421.22
2022-09-18T19:38:52.243Z,100412.09
2022-09-18T19:41:25.438Z,100419.88
2022-09-18T19:43:55.168Z,100411.50
2022-09-18T19:46:26.446Z,100407.94
2022-09-18T19:48:55.353Z,100413.63
2022-09-18T19:51:24.015Z,100410.53
2022-09-18T19:53:52.142Z,100413.78
2022-09-18T19:56:41.563Z,100414.56
2022-09-18T19:59:09.960Z,100413.06
2022-09-18T20:01:37.915Z,100412.22
2022-09-18T20:04:05.866Z,100408.78
2022-09-18T20:06:34.233Z,100409.25
2022-09-18T20:09:02.282Z,100406.00
2022-09-18T20:11:30.175Z,100407.22
2022-09-18T20:13:58.110Z,100414.53
2022-09-18T20:16:27.516Z,100417.97
2022-09-18T20:18:55.711Z,100418.66
2022-09-18T20:21:23.707Z,100417.47
2022-09-18T20:23:57.103Z,100417.72
2022-09-18T20:26:25.168Z,100422.22
2022-09-18T20:28:53.335Z,100416.19
2022-09-18T20:31:23.798Z,100423.88
2022-09-18T20:33:56.875Z,100418.03
2022-09-18T20:36:26.100Z,100428.69
2022-09-18T20:38:57.840Z,100423.19
2022-09-18T20:41:29.931Z,100420.75
2022-09-18T20:44:00.995Z,100417.34
2022-09-18T20:46:29.022Z,100425.84
2022-09-18T20:49:00.083Z,100420.00
2022-09-18T20:51:29.575Z,100421.50
2022-09-18T20:53:59.081Z,100422.75
2022-09-18T20:56:31.024Z,100429.25
2022-09-18T20:59:04.744Z,100423.66
2022-09-18T21:01:35.487Z,100421.25
2022-09-18T21:04:05.146Z,100431.09
2022-09-18T21:06:34.826Z,100431.09
2022-09-18T21:09:09.789Z,100436.94
2022-09-18T21:11:39.828Z,100429.53
2022-09-18T21:14:09.649Z,100427.53
2022-09-18T21:16:43.043Z,100422.09
2022-09-18T21:19:13.312Z,100431.75
2022-09-18T21:21:41.845Z,100422.72
2022-09-18T21:24:10.222Z,100436.28
2022-09-18T21:26:40.046Z,100435.25
2022-09-18T21:29:11.852Z,100426.25
2022-09-18T21:31:42.641Z,100422.72
2022-09-18T21:34:14.112Z,100425.25
2022-09-18T21:36:45.062Z,100421.22
2022-09-18T21:39:14.462Z,100424.63
2022-09-18T21:41:46.350Z,100417.94
2022-09-18T21:44:16.292Z,100420.56
2022-09-18T21:46:45.924Z,100422.53
2022-09-18T21:49:16.382Z,100418.91
2022-09-18T21:51:44.780Z,100417.91
2022-09-18T21:54:15.621Z,100424.16
2022-09-18T21:56:44.659Z,100419.44
2022-09-18T21:59:13.520Z,100414.94
2022-09-18T22:01:42.870Z,100421.13
2022-09-18T22:04:13.365Z,100416.81
2022-09-18T22:06:46.296Z,100433.13
2022-09-18T22:09:16.851Z,100422.19
2022-09-18T22:11:46.074Z,100427.28
2022-09-18T22:14:16.813Z,100424.47
2022-09-18T22:16:45.740Z,100424.13
2022-09-18T22:19:14.149Z,100423.91
2022-09-18T22:21:45.301Z,100424.13
2022-09-18T22:24:15.818Z,100424.63
2022-09-18T22:26:45.565Z,100422.69
2022-09-18T22:29:16.761Z,100428.63
2022-09-18T22:31:46.473Z,100428.19
2022-09-18T22:34:17.357Z,100427.00
2022-09-18T22:36:47.626Z,100423.78
2022-09-18T22:39:16.936Z,100429.25
2022-09-18T22:41:45.653Z,100436.34
2022-09-18T22:44:14.106Z,100434.53
2022-09-18T22:46:44.186Z,100439.84
2022-09-18T22:49:14.304Z,100437.94
2022-09-18T22:51:42.789Z,100442.22
2022-09-18T22:54:13.183Z,100442.69
2022-09-18T22:56:43.995Z,100449.88
2022-09-18T22:59:12.592Z,100438.31
2022-09-18T23:01:42.587Z,100442.19
2022-09-18T23:04:10.988Z,100448.34
2022-09-18T23:06:38.973Z,100455.78
2022-09-18T23:09:07.544Z,100448.59
2022-09-18T23:11:37.092Z,100444.88
2022-09-18T23:14:07.672Z,100451.78
2022-09-18T23:16:37.570Z,100452.47
2022-09-18T23:19:09.759Z,100455.22
2022-09-18T23:21:40.240Z,100465.34
2022-09-18T23:24:10.709Z,100456.41
2022-09-18T23:26:41.997Z,100462.72
2022-09-18T23:29:12.752Z,100464.75
2022-09-18T23:31:43.014Z,100463.38
2022-09-18T23:34:14.456Z,100468.16
2022-09-18T23:36:44.708Z,100467.44
2022-09-18T23:39:14.431Z,100466.81
2022-09-18T23:41:43.744Z,100460.81
2022-09-18T23:44:14.199Z,100449.84
2022-09-18T23:46:42.924Z,100464.81
2022-09-18T23:49:12.452Z,100460.03
2022-09-18T23:51:42.764Z,100464.91
2022-09-18T23:54:16.680Z,100469.78
2022-09-18T23:56:46.615Z,100466.47
2022-09-18T23:59:17.789Z,100472.66
